Time;durP1;ratioP1;P1;durP2;ratioP2;P2;SDS_P1;SDS_P2;PMS_P1;PMS_P2;Temp;Humidity;BMP_temperature;BMP_pressure;BME280_temperature;BME280_humidity;BME280_pressure;Samples;Min_cycle;Max_cycle;Signal;HPM_P1;HPM_P2
2021/10/27 00:00:04;;;;;;;;;11.00;7.00;;;;;13.91;83.32;102149.47;5054449;28;46585;-60
2021/10/27 00:02:29;;;;;;;;;7.00;6.00;;;;;13.92;83.31;102145.97;5057009;28;45308;-60
2021/10/27 00:04:55;;;;;;;;;5.50;3.25;;;;;13.92;83.33;102141.59;5053958;28;45315;-60
2021/10/27 00:07:21;;;;;;;;;8.75;5.00;;;;;13.92;83.43;102151.19;5048738;28;45240;-60
2021/10/27 00:09:47;;;;;;;;;7.75;6.25;;;;;13.88;83.66;102146.94;5053424;28;45331;-60
2021/10/27 00:12:15;;;;;;;;;6.00;6.00;;;;;13.88;83.79;102144.31;5052595;28;45530;-60
2021/10/27 00:14:40;;;;;;;;;5.00;5.00;;;;;13.84;83.66;102143.53;5050198;28;47068;-60
2021/10/27 00:17:06;;;;;;;;;7.75;7.50;;;;;13.85;83.98;102147.00;5051317;28;46494;-60
2021/10/27 00:19:32;;;;;;;;;13.50;9.00;;;;;13.85;84.08;102154.84;5055811;28;45319;-60
2021/10/27 00:21:57;;;;;;;;;7.25;6.25;;;;;13.85;84.41;102152.22;5052656;28;45389;-60
2021/10/27 00:24:22;;;;;;;;;6.75;5.00;;;;;13.81;84.77;102154.00;5052494;28;45335;-60
2021/10/27 00:26:48;;;;;;;;;5.00;5.00;;;;;13.74;85.47;102159.38;5051788;28;45464;-60
2021/10/27 00:29:13;;;;;;;;;5.75;5.50;;;;;13.70;85.09;102159.44;5060564;28;45341;-60
2021/10/27 00:31:38;;;;;;;;;7.50;6.00;;;;;13.65;85.69;102166.50;5062211;28;45684;-60
2021/10/27 00:34:04;;;;;;;;;7.25;6.00;;;;;13.63;85.13;102163.06;5062292;28;46431;-60
2021/10/27 00:36:30;;;;;;;;;9.25;7.50;;;;;13.64;85.82;102159.56;5052389;28;45484;-60
2021/10/27 00:38:55;;;;;;;;;8.00;5.00;;;;;13.60;85.50;102155.25;5051158;28;45257;-59
2021/10/27 00:41:20;;;;;;;;;5.00;5.00;;;;;13.59;86.12;102170.94;5062017;28;45399;-59
2021/10/27 00:43:46;;;;;;;;;7.00;4.00;;;;;13.58;85.71;102164.84;5061520;28;46284;-59
2021/10/27 00:46:20;;;;;;;;;9.00;6.00;;;;;13.56;85.91;102169.25;5061597;28;45457;-60
2021/10/27 00:48:46;;;;;;;;;9.25;6.25;;;;;13.56;85.70;102168.38;5061229;28;45271;-60
2021/10/27 00:51:12;;;;;;;;;11.50;6.00;;;;;13.60;85.35;102167.44;5062045;28;45231;-60
2021/10/27 00:53:39;;;;;;;;;8.25;6.00;;;;;13.61;85.52;102170.03;5061465;28;46321;-60
2021/10/27 00:56:05;;;;;;;;;10.75;6.25;;;;;13.64;85.21;102162.16;5058761;28;45869;-60
2021/10/27 00:58:31;;;;;;;;;5.50;4.75;;;;;13.67;85.24;102156.88;5059577;28;45394;-60
2021/10/27 01:00:57;;;;;;;;;6.00;6.00;;;;;13.69;85.17;102156.84;5062982;28;45374;-60
2021/10/27 01:03:22;;;;;;;;;6.50;5.50;;;;;13.69;84.89;102159.47;5060801;28;46267;-60
2021/10/27 01:05:47;;;;;;;;;8.50;5.25;;;;;13.72;85.12;102155.94;5061758;28;45260;-60
2021/10/27 01:08:13;;;;;;;;;5.00;4.50;;;;;13.74;84.68;102151.53;5061863;28;45358;-60
2021/10/27 01:10:40;;;;;;;;;4.75;4.50;;;;;13.73;84.78;102147.19;5060154;28;45458;-60
2021/10/27 01:13:06;;;;;;;;;7.00;4.75;;;;;13.73;84.54;102140.22;5059600;28;45296;-60
2021/10/27 01:15:31;;;;;;;;;6.00;6.00;;;;;13.75;84.84;102142.81;5061622;28;45335;-60
2021/10/27 01:17:57;;;;;;;;;11.25;5.75;;;;;13.74;84.84;102143.69;5061444;28;45286;-60
2021/10/27 01:20:22;;;;;;;;;6.50;5.00;;;;;13.70;84.51;102138.53;5061652;28;45397;-60
2021/10/27 01:22:48;;;;;;;;;4.25;3.75;;;;;13.75;84.55;102143.66;5061168;28;45888;-60
2021/10/27 01:25:13;;;;;;;;;7.00;6.00;;;;;13.76;84.43;102150.63;5054375;28;45356;-60
2021/10/27 01:27:44;;;;;;;;;12.50;6.75;;;;;13.75;84.64;102151.50;5061231;28;45479;-60
2021/10/27 01:30:16;;;;;;;;;5.00;5.00;;;;;13.76;84.89;102154.97;5061325;28;45504;-60
2021/10/27 01:32:43;;;;;;;;;4.00;4.00;;;;;13.69;84.58;102149.88;5062324;28;46258;-59
2021/10/27 01:35:09;;;;;;;;;4.50;4.00;;;;;13.66;84.57;102149.94;5061329;28;45877;-60
2021/10/27 01:37:37;;;;;;;;;6.50;6.00;;;;;13.64;84.76;102141.28;5051265;28;45253;-59
2021/10/27 01:40:04;;;;;;;;;6.25;5.00;;;;;13.67;84.56;102141.22;5053583;28;45228;-59
2021/10/27 01:42:29;;;;;;;;;5.00;5.00;;;;;13.66;85.06;102139.47;5060955;28;46096;-59
2021/10/27 01:44:55;;;;;;;;;8.00;5.50;;;;;13.60;84.63;102131.72;5060810;28;45269;-59
2021/10/27 01:47:20;;;;;;;;;5.50;4.25;;;;;13.63;84.62;102134.31;5061058;28;45406;-59
2021/10/27 01:49:47;;;;;;;;;5.00;5.00;;;;;13.64;84.63;102127.34;5060999;28;45470;-59
2021/10/27 01:52:13;;;;;;;;;4.00;4.00;;;;;13.63;84.42;102126.47;5061001;28;46225;-59
2021/10/27 01:54:39;;;;;;;;;5.00;4.00;;;;;13.61;84.52;102122.16;5060890;28;45275;-60
2021/10/27 01:57:07;;;;;;;;;8.75;4.00;;;;;13.62;84.42;102126.50;5061403;28;45329;-59
2021/10/27 01:59:33;;;;;;;;;5.50;5.00;;;;;13.62;84.70;102126.50;5059102;28;45252;-59
2021/10/27 02:01:58;;;;;;;;;6.75;4.00;;;;;13.61;84.31;102119.53;5061680;28;46187;-59
2021/10/27 02:04:24;;;;;;;;;6.00;5.00;;;;;13.59;84.72;102116.94;5059646;28;45196;-60
2021/10/27 02:06:49;;;;;;;;;8.75;5.25;;;;;13.58;84.61;102114.38;5060972;28;45225;-59
2021/10/27 02:09:14;;;;;;;;;7.00;4.50;;;;;13.58;84.46;102120.44;5060755;28;45177;-59
2021/10/27 02:11:40;;;;;;;;;5.50;3.50;;;;;13.56;84.23;102103.94;5060687;28;45559;-59
2021/10/27 02:14:06;;;;;;;;;6.25;5.25;;;;;13.55;84.59;102102.22;5061896;28;45410;-59
2021/10/27 02:16:31;;;;;;;;;6.25;5.00;;;;;13.55;84.35;102104.84;5060592;28;45438;-59
2021/10/27 02:18:57;;;;;;;;;3.75;3.75;;;;;13.54;84.55;102097.91;5060706;28;45373;-59
2021/10/27 02:21:23;;;;;;;;;7.00;4.00;;;;;13.52;84.45;102107.50;5060647;28;45420;-59
2021/10/27 02:23:48;;;;;;;;;5.00;5.00;;;;;13.52;84.55;102104.03;5051355;28;45263;-59
2021/10/27 02:26:14;;;;;;;;;5.00;3.50;;;;;13.51;84.50;102107.53;5060659;28;45482;-60
2021/10/27 02:28:40;;;;;;;;;6.25;5.00;;;;;13.49;84.38;102109.31;5060334;28;45303;-60
2021/10/27 02:31:05;;;;;;;;;6.50;5.00;;;;;13.45;84.43;102115.50;5060380;28;45316;-59
2021/10/27 02:33:31;;;;;;;;;6.50;4.00;;;;;13.41;85.01;102114.66;5060264;28;45549;-60
2021/10/27 02:35:56;;;;;;;;;5.00;5.00;;;;;13.41;nan;102122.50;5055634;28;45422;-59
2021/10/27 02:38:21;;;;;;;;;8.75;4.00;;;;;13.41;85.02;102127.72;5053879;28;45394;-59
2021/10/27 02:40:47;;;;;;;;;4.25;4.25;;;;;13.39;84.76;102112.09;5060350;28;46074;-59
2021/10/27 02:43:13;;;;;;;;;4.50;4.00;;;;;13.34;84.88;102103.47;5047294;28;45425;-59
2021/10/27 02:45:39;;;;;;;;;6.50;5.50;;;;;13.36;85.10;102103.44;5060365;28;45248;-59
2021/10/27 02:48:05;;;;;;;;;6.75;6.00;;;;;13.35;84.97;102109.56;5059879;28;45417;-59
2021/10/27 02:50:30;;;;;;;;;9.25;7.00;;;;;13.35;85.07;102120.84;5058859;28;47034;-58
2021/10/27 02:52:55;;;;;;;;;6.00;4.50;;;;;13.35;85.22;102105.19;5058586;28;45508;-59
2021/10/27 02:55:21;;;;;;;;;8.50;6.50;;;;;13.35;85.20;102113.03;5060496;28;45248;-59
2021/10/27 02:57:46;;;;;;;;;5.75;5.00;;;;;13.33;85.29;102108.72;5058497;28;45417;-59
2021/10/27 03:00:12;;;;;;;;;2.75;2.75;;;;;13.31;85.40;102118.34;5060006;28;45330;-59
2021/10/27 03:02:38;;;;;;;;;6.25;5.00;;;;;13.29;85.35;102114.88;5060390;28;45421;-59
2021/10/27 03:05:06;;;;;;;;;5.25;5.00;;;;;13.29;85.48;102114.88;5058770;28;45296;-59
2021/10/27 03:07:31;;;;;;;;;10.00;5.75;;;;;13.29;85.39;102117.50;5059795;28;45600;-60
2021/10/27 03:09:56;;;;;;;;;5.00;5.00;;;;;13.29;85.24;102117.50;5059673;28;47072;-59
2021/10/27 03:12:23;;;;;;;;;6.50;4.25;;;;;13.27;85.30;102120.13;5054811;28;45217;-60
2021/10/27 03:14:48;;;;;;;;;8.50;4.00;;;;;13.24;85.43;102098.44;5058746;28;45463;-60
2021/10/27 03:17:17;;;;;;;;;7.50;6.50;;;;;13.23;85.62;102102.81;5059611;28;45269;-60
2021/10/27 03:19:42;;;;;;;;;6.25;5.25;;;;;13.23;85.53;102108.03;5059633;28;46226;-60
2021/10/27 03:22:08;;;;;;;;;8.75;4.25;;;;;13.24;85.59;102095.84;5058578;28;45485;-60
2021/10/27 03:24:33;;;;;;;;;5.00;5.00;;;;;13.22;85.72;102093.25;5053310;28;45431;-60
2021/10/27 03:26:59;;;;;;;;;9.50;7.00;;;;;13.22;85.64;102081.94;5059594;28;45333;-60
2021/10/27 03:29:24;;;;;;;;;7.25;6.00;;;;;13.22;85.71;102089.78;5058981;28;46083;-59
2021/10/27 03:31:49;;;;;;;;;6.00;4.50;;;;;13.21;85.89;102088.03;5059278;28;45449;-58
2021/10/27 03:34:15;;;;;;;;;6.75;4.50;;;;;13.21;85.92;102082.81;5059897;28;45675;-61
2021/10/27 03:36:40;;;;;;;;;4.75;4.25;;;;;13.20;85.97;102087.16;5052089;28;45417;-61
2021/10/27 03:39:06;;;;;;;;;5.75;5.00;;;;;13.18;85.89;102093.31;5061794;28;46919;-60
2021/10/27 03:41:31;;;;;;;;;6.00;6.00;;;;;13.17;86.22;102086.34;5062953;28;45294;-60
2021/10/27 03:43:57;;;;;;;;;9.75;7.25;;;;;13.18;86.19;102091.56;5063110;28;45223;-60
2021/10/27 03:46:22;;;;;;;;;5.00;5.00;;;;;13.15;86.26;102094.19;5046595;28;45524;-62
2021/10/27 03:48:47;;;;;;;;;8.25;5.00;;;;;13.16;86.21;102092.44;5063254;28;46046;-61
2021/10/27 03:51:13;;;;;;;;;7.25;5.00;;;;;13.15;86.11;102088.09;5062770;28;45438;-61
2021/10/27 03:53:40;;;;;;;;;6.00;6.00;;;;;13.14;86.30;102091.59;5062835;28;45353;-61
2021/10/27 03:56:05;;;;;;;;;10.75;6.75;;;;;13.10;86.57;102088.19;5062844;28;45219;-61
2021/10/27 03:58:33;;;;;;;;;3.00;3.00;;;;;13.07;86.68;102089.09;5061010;28;45365;-61
2021/10/27 04:00:59;;;;;;;;;8.25;5.50;;;;;13.08;86.54;102098.66;5060381;28;46003;-60
2021/10/27 04:03:25;;;;;;;;;8.00;5.50;;;;;13.08;86.45;102098.66;5061482;28;45327;-60
2021/10/27 04:05:50;;;;;;;;;5.75;5.50;;;;;13.06;86.37;102095.22;5062745;28;45342;-60
2021/10/27 04:08:16;;;;;;;;;6.00;6.00;;;;;13.05;86.79;102101.31;5062370;28;45271;-60
2021/10/27 04:10:42;;;;;;;;;8.75;6.50;;;;;13.06;86.93;102091.75;5062716;28;45302;-60
2021/10/27 04:13:07;;;;;;;;;7.00;4.75;;;;;13.05;86.77;102098.72;5062502;28;45405;-60
2021/10/27 04:15:33;;;;;;;;;10.00;10.00;;;;;13.04;86.84;102094.38;5062636;28;45216;-60
2021/10/27 04:17:59;;;;;;;;;13.50;11.75;;;;;13.02;86.76;102096.16;5062034;28;45963;-59
2021/10/27 04:20:25;;;;;;;;;11.75;11.75;;;;;13.00;86.49;102094.44;5062454;28;45279;-59
2021/10/27 04:22:51;;;;;;;;;11.50;11.00;;;;;12.95;86.71;102094.50;5060788;28;45817;-60
2021/10/27 04:25:16;;;;;;;;;15.00;12.00;;;;;12.94;86.76;102098.00;5056107;28;45337;-58
2021/10/27 04:27:41;;;;;;;;;13.50;11.00;;;;;12.92;86.85;102099.78;5061769;28;46403;-59
2021/10/27 04:30:07;;;;;;;;;15.00;11.00;;;;;12.89;87.11;102096.38;5062076;28;45371;-58
2021/10/27 04:32:33;;;;;;;;;19.00;14.00;;;;;12.89;86.99;102112.00;5061951;28;45335;-59
2021/10/27 04:34:58;;;;;;;;;16.25;12.00;;;;;12.85;87.01;102100.78;5062208;28;45280;-60
2021/10/27 04:37:24;;;;;;;;;20.25;14.25;;;;;12.84;87.31;102106.00;5052242;28;46047;-60
2021/10/27 04:39:50;;;;;;;;;18.75;16.50;;;;;12.84;87.10;102114.69;5061712;28;45347;-60
2021/10/27 04:42:15;;;;;;;;;17.75;12.00;;;;;12.83;87.28;102114.72;5061926;28;45578;-60
2021/10/27 04:44:41;;;;;;;;;19.75;14.50;;;;;12.82;87.22;102115.63;5062960;28;45241;-60
2021/10/27 04:47:06;;;;;;;;;23.25;16.00;;;;;12.75;87.29;102110.47;5059673;28;45387;-60
2021/10/27 04:49:32;;;;;;;;;20.00;17.00;;;;;12.68;87.23;102102.75;5055737;28;45326;-60
2021/10/27 04:51:58;;;;;;;;;20.75;14.50;;;;;12.71;87.18;102103.56;5061637;28;45249;-60
2021/10/27 04:54:24;;;;;;;;;21.75;14.25;;;;;12.70;87.33;102106.22;5061561;28;45324;-60
2021/10/27 04:56:49;;;;;;;;;15.50;14.50;;;;;12.69;87.51;102107.09;5060173;28;47271;-60
2021/10/27 04:59:15;;;;;;;;;17.25;13.00;;;;;12.65;87.89;102100.19;5059959;28;45220;-60
2021/10/27 05:01:46;;;;;;;;;16.75;12.50;;;;;12.66;87.37;102109.75;5061606;28;45613;-60
2021/10/27 05:04:12;;;;;;;;;16.25;10.50;;;;;12.65;87.38;102108.03;5060364;28;45300;-60
2021/10/27 05:06:37;;;;;;;;;20.75;17.50;;;;;12.65;87.75;102108.03;5060910;28;46253;-60
2021/10/27 05:09:03;;;;;;;;;16.50;14.00;;;;;12.62;87.58;102103.72;5061091;28;45226;-61
2021/10/27 05:11:28;;;;;;;;;16.75;14.25;;;;;12.62;87.50;102106.31;5061117;28;45224;-61
2021/10/27 05:13:54;;;;;;;;;18.00;13.50;;;;;12.62;87.71;102100.25;5061076;28;45426;-61
2021/10/27 05:16:19;;;;;;;;;20.25;13.00;;;;;12.60;87.70;102100.25;5060347;28;47333;-60
2021/10/27 05:18:44;;;;;;;;;16.75;13.00;;;;;12.59;87.86;102101.13;5060745;28;45255;-60
2021/10/27 05:21:10;;;;;;;;;16.50;14.00;;;;;12.56;87.70;102097.69;5061099;28;45351;-60
2021/10/27 05:23:35;;;;;;;;;16.25;13.25;;;;;12.56;87.78;102101.19;5054042;28;45738;-60
2021/10/27 05:26:01;;;;;;;;;17.00;11.50;;;;;12.55;87.82;102102.06;5058680;28;46171;-60
2021/10/27 05:28:27;;;;;;;;;18.00;14.75;;;;;12.52;87.95;102104.72;5060707;28;45682;-60
2021/10/27 05:30:52;;;;;;;;;15.00;12.00;;;;;12.51;87.90;102107.34;5060180;28;45362;-60
2021/10/27 05:33:18;;;;;;;;;18.75;14.00;;;;;12.46;88.05;102103.06;5060544;28;45384;-59
2021/10/27 05:35:43;;;;;;;;;14.50;12.25;;;;;12.47;87.92;102104.78;5056258;28;46123;-59
2021/10/27 05:38:08;;;;;;;;;16.00;12.00;;;;;12.44;87.85;102094.41;5053737;28;45452;-60
2021/10/27 05:40:34;;;;;;;;;17.00;14.25;;;;;12.42;88.07;102093.56;5060760;28;45303;-60
2021/10/27 05:43:07;;;;;;;;;21.50;17.00;;;;;12.42;88.23;102095.31;5060369;28;45438;-59
2021/10/27 05:45:33;;;;;;;;;15.75;13.75;;;;;12.40;87.91;102097.91;5060245;28;46206;-58
2021/10/27 05:48:01;;;;;;;;;15.00;15.00;;;;;12.38;88.31;102097.06;5058674;28;45508;-58
2021/10/27 05:55:36;;;;;;;;;19.50;18.00;;;;;12.33;88.46;102090.19;5050417;28;45793;-58
2021/10/27 05:58:03;;;;;;;;;17.25;13.25;;;;;12.31;88.32;102092.81;5051697;28;45350;-58
2021/10/27 06:00:29;;;;;;;;;18.75;15.00;;;;;12.32;88.33;102091.09;5051037;28;45418;-58
2021/10/27 06:02:55;;;;;;;;;14.50;13.25;;;;;12.30;88.45;102088.50;5050686;28;45371;-58
2021/10/27 06:05:20;;;;;;;;;15.75;13.25;;;;;12.29;88.14;102089.38;5051857;28;45371;-57
2021/10/27 06:07:46;;;;;;;;;16.00;13.00;;;;;12.28;88.28;102089.41;5060222;28;45528;-57
2021/10/27 06:10:18;;;;;;;;;24.00;13.25;;;;;12.29;88.29;102096.34;5060723;28;45490;-57
2021/10/27 06:12:44;;;;;;;;;19.25;16.25;;;;;12.29;88.36;102097.19;5059873;28;45384;-57
2021/10/27 06:15:10;;;;;;;;;18.00;16.25;;;;;12.29;88.16;102096.34;5059958;28;46866;-57
2021/10/27 06:17:36;;;;;;;;;17.25;13.50;;;;;12.29;88.44;102096.34;5060003;28;45235;-56
2021/10/27 06:20:02;;;;;;;;;16.50;13.75;;;;;12.29;88.57;102091.13;5056313;28;45421;-57
2021/10/27 06:22:27;;;;;;;;;25.00;18.25;;;;;12.28;88.41;102089.41;5048688;28;45478;-57
2021/10/27 06:24:54;;;;;;;;;19.75;14.75;;;;;12.26;88.39;102089.44;5049375;28;46099;-57
2021/10/27 06:27:19;;;;;;;;;16.25;15.00;;;;;12.27;88.36;102088.53;5051065;28;45303;-57
2021/10/27 06:29:57;;;;;;;;;18.75;16.00;;;;;12.27;88.51;102096.38;5050299;28;45236;-57
2021/10/27 06:32:42;;;;;;;;;19.25;16.75;;;;;12.27;88.50;102096.38;5048799;28;45315;-57
2021/10/27 06:35:17;;;;;;;;;20.75;16.75;;;;;12.28;88.26;102084.19;5050892;28;47204;-57
2021/10/27 06:48:40;;;;;;;;;30.00;23.00;;;;;12.22;88.69;102108.59;5046933;28;45586;-58
2021/10/27 06:51:05;;;;;;;;;22.50;19.00;;;;;12.23;88.34;102105.09;5049338;28;45463;-60
2021/10/27 06:53:31;;;;;;;;;21.00;19.00;;;;;12.26;88.22;102106.81;5046103;28;45542;-59
2021/10/27 06:55:57;;;;;;;;;23.50;18.25;;;;;12.25;88.32;102105.94;5050272;28;46198;-58
2021/10/27 06:58:23;;;;;;;;;21.50;18.50;;;;;12.28;88.31;102112.88;5051185;28;45363;-58
2021/10/27 07:00:52;;;;;;;;;31.50;30.00;;;;;12.29;88.04;102112.84;5048474;28;45459;-59
2021/10/27 07:16:36;;;;;;;;;27.25;20.50;;;;;12.53;87.17;102137.72;5046405;28;45300;-60
2021/10/27 07:19:02;;;;;;;;;34.50;27.50;;;;;12.57;87.23;102138.53;5058867;28;45308;-59
2021/10/27 07:21:27;;;;;;;;;27.75;21.50;;;;;12.62;87.04;102149.81;5059477;28;45287;-58
2021/10/27 07:23:52;;;;;;;;;28.50;26.25;;;;;12.64;86.79;102146.28;5051758;28;45701;-59
2021/10/27 07:26:19;;;;;;;;;32.75;26.50;;;;;12.70;86.80;102145.34;5059590;28;45337;-59
2021/10/27 07:28:47;;;;;;;;;30.25;21.00;;;;;12.75;86.42;102141.75;5058929;28;45247;-58
2021/10/27 07:31:15;;;;;;;;;27.00;23.75;;;;;12.82;86.26;102149.53;5060599;28;45365;-59
2021/10/27 07:33:42;;;;;;;;;28.00;24.00;;;;;12.86;85.97;102152.06;5059293;28;45568;-58
2021/10/27 07:36:29;;;;;;;;;28.75;25.25;;;;;12.89;85.85;102156.38;5052633;28;46241;-58
2021/10/27 07:41:39;;;;;;;;;28.75;23.50;;;;;12.99;85.36;102161.41;5057290;28;45455;-62
2021/10/27 07:44:14;;;;;;;;;28.50;24.75;;;;;13.04;85.13;102164.84;5057712;28;45347;-60
2021/10/27 07:46:44;;;;;;;;;31.75;24.50;;;;;13.09;85.18;102168.25;5058131;28;46085;-58
2021/10/27 07:49:09;;;;;;;;;32.50;27.25;;;;;13.18;84.73;102179.44;5059260;28;45759;-60
2021/10/27 07:51:35;;;;;;;;;24.75;23.25;;;;;13.25;84.18;102170.66;5058753;28;45334;-60
2021/10/27 07:54:00;;;;;;;;;34.50;27.50;;;;;13.31;84.19;102168.81;5059209;28;45453;-60
2021/10/27 07:56:29;;;;;;;;;29.25;27.50;;;;;13.38;83.98;102166.94;5049505;28;46447;-59
2021/10/27 07:58:54;;;;;;;;;32.25;27.75;;;;;13.42;83.52;102176.47;5058740;28;45301;-57
2021/10/27 08:01:20;;;;;;;;;26.00;20.50;;;;;13.46;83.65;102172.91;5059398;28;45292;-58
2021/10/27 08:03:46;;;;;;;;;28.75;24.00;;;;;13.54;83.73;102178.88;5057728;28;45192;-58
2021/10/27 08:06:11;;;;;;;;;42.50;32.50;;;;;13.60;83.26;102180.50;5058796;28;47089;-58
2021/10/27 08:08:37;;;;;;;;;30.00;23.25;;;;;13.67;82.75;102183.00;5059196;28;45287;-59
2021/10/27 08:11:02;;;;;;;;;36.50;27.25;;;;;13.71;82.67;102181.19;5058890;28;45319;-59
2021/10/27 08:13:28;;;;;;;;;42.25;26.75;;;;;13.78;82.54;102174.09;5058563;28;45461;-60
2021/10/27 08:15:54;;;;;;;;;28.50;27.25;;;;;13.86;82.22;102175.72;5058266;28;46160;-58
2021/10/27 08:18:19;;;;;;;;;32.00;26.75;;;;;13.93;81.85;102173.84;5058797;28;45327;-58
2021/10/27 08:20:46;;;;;;;;;43.50;29.00;;;;;13.97;81.69;102175.50;5059809;28;45346;-57
2021/10/27 08:23:13;;;;;;;;;34.00;23.25;;;;;13.98;81.16;102167.63;5057673;28;45448;-58
2021/10/27 08:28:11;;;;;;;;;29.25;23.50;;;;;14.08;81.05;102162.22;5062008;28;45877;-58
2021/10/27 08:33:19;;;;;;;;;34.00;27.75;;;;;14.22;80.75;102163.69;5062262;28;45465;-58
2021/10/27 08:35:44;;;;;;;;;36.00;28.50;;;;;14.31;80.37;102157.41;5057300;28;46053;-58
2021/10/27 08:38:09;;;;;;;;;26.50;22.00;;;;;14.36;80.32;102152.94;5053827;28;45425;-59
2021/10/27 08:40:35;;;;;;;;;36.75;28.25;;;;;14.43;79.91;102153.69;5061921;28;45338;-61
2021/10/27 08:43:00;;;;;;;;;31.75;25.50;;;;;14.48;79.84;102146.63;5061942;28;45283;-58
2021/10/27 08:45:28;;;;;;;;;34.50;28.75;;;;;14.55;79.60;102149.06;5061632;28;46333;-58
2021/10/27 08:47:54;;;;;;;;;39.75;32.25;;;;;14.66;79.40;102154.09;5061757;28;45230;-58
2021/10/27 08:50:21;;;;;;;;;31.75;27.25;;;;;14.73;79.06;102153.06;5061994;28;45238;-58
2021/10/27 08:52:47;;;;;;;;;37.50;28.75;;;;;14.80;78.79;102152.00;5061603;28;45343;-58
2021/10/27 08:55:16;;;;;;;;;58.75;43.00;;;;;14.95;78.63;102165.66;5061853;28;46269;-58
2021/10/27 08:57:47;;;;;;;;;35.00;27.50;;;;;15.09;78.13;102155.72;5058322;28;46876;-58
2021/10/27 09:00:17;;;;;;;;;41.50;32.00;;;;;15.21;77.82;102160.66;5051068;28;45283;-59
2021/10/27 09:03:08;;;;;;;;;31.00;25.50;;;;;15.31;77.73;102156.94;5057322;28;45314;-59
2021/10/27 10:06:17;;;;;;;;;34.50;31.00;;;;;21.10;64.84;102155.09;5061425;28;45452;-55
2021/10/27 10:08:48;;;;;;;;;42.00;32.75;;;;;21.19;61.39;102150.19;5059825;28;45211;-56
2021/10/27 10:11:20;;;;;;;;;41.75;32.25;;;;;20.90;63.43;102141.06;5059417;28;46183;-56
2021/10/27 10:13:46;;;;;;;;;34.00;29.75;;;;;20.63;61.86;102148.53;5052519;28;45573;-56
2021/10/27 10:16:13;;;;;;;;;44.75;33.75;;;;;20.39;61.94;102146.13;5063293;28;45415;-57
2021/10/27 10:18:39;;;;;;;;;46.00;35.75;;;;;20.62;63.49;102154.75;5048639;28;45457;-56
2021/10/27 10:21:06;;;;;;;;;42.75;33.25;;;;;20.99;62.44;102149.47;5051804;28;46146;-57
2021/10/27 10:23:31;;;;;;;;;41.25;33.75;;;;;21.25;61.60;102157.03;5053934;28;45193;-55
2021/10/27 10:26:00;;;;;;;;;39.25;29.50;;;;;22.13;59.67;102152.47;5057629;28;45415;-56
2021/10/27 10:28:27;;;;;;;;;44.75;32.75;;;;;22.56;58.22;102147.47;5059695;28;45465;-56
2021/10/27 10:31:00;;;;;;;;;43.00;33.75;;;;;22.69;57.20;102148.50;5059239;28;47129;-56
2021/10/27 10:33:43;;;;;;;;;40.25;30.25;;;;;22.73;56.63;102150.03;5059757;28;45407;-57
2021/10/27 10:36:26;;;;;;;;;39.75;34.25;;;;;22.34;55.58;102153.09;5058442;28;45263;-60
2021/10/27 11:38:15;;;;;;;;;31.25;27.75;;;;;26.92;46.42;102094.31;5047748;28;45449;-58
2021/10/27 11:40:43;;;;;;;;;33.00;28.00;;;;;26.81;43.45;102094.25;5047837;28;45410;-57
2021/10/27 11:46:25;;;;;;;;;33.75;28.50;;;;;24.11;45.20;102092.34;5044781;28;45392;-58
2021/10/27 11:48:35;;;;;;;;;27.50;25.25;;;;;23.21;46.79;102092.50;5051338;28;45471;-59
2021/10/27 11:51:09;;;;;;;;;14.50;10.75;;;;;22.54;48.08;102087.56;5048003;28;45308;-56
2021/10/27 11:53:38;;;;;;;;;19.25;14.00;;;;;21.83;47.91;102072.88;5044069;28;45319;-58
2021/10/27 11:56:18;;;;;;;;;18.75;16.00;;;;;21.09;49.49;102082.88;5053484;28;45403;-61
2021/10/27 11:58:48;;;;;;;;;23.25;19.00;;;;;20.50;50.13;102072.59;5060756;28;46875;-60
2021/10/27 12:01:33;;;;;;;;;13.75;11.00;;;;;20.22;50.88;102071.22;5055177;28;45892;-62
2021/10/27 12:04:04;;;;;;;;;17.75;15.75;;;;;19.78;51.94;102064.47;5055510;28;45453;-58
2021/10/27 12:06:39;;;;;;;;;13.50;10.00;;;;;19.49;53.09;102061.31;5062287;28;45425;-61
2021/10/27 12:12:04;;;;;;;;;13.75;12.50;;;;;18.83;54.03;102052.72;5052752;28;45416;-59
2021/10/27 12:20:07;;;;;;;;;11.75;10.75;;;;;18.27;56.24;102039.13;5049558;28;46018;-58
2021/10/27 12:22:32;;;;;;;;;14.50;13.25;;;;;18.15;56.57;102030.78;5053721;28;45291;-59
2021/10/27 12:25:00;;;;;;;;;14.50;13.00;;;;;18.06;57.07;102035.56;5054141;28;45244;-59
2021/10/27 12:27:34;;;;;;;;;13.25;12.50;;;;;18.12;56.93;102024.78;5061792;28;45528;-59
2021/10/27 12:30:04;;;;;;;;;17.00;14.75;;;;;18.11;57.40;102023.94;5061243;28;46324;-58
2021/10/27 12:32:29;;;;;;;;;13.25;11.00;;;;;18.10;57.00;102026.63;5061636;28;45739;-57
2021/10/27 12:34:57;;;;;;;;;9.50;8.25;;;;;17.98;57.11;102011.28;5062027;28;45356;-57
2021/10/27 12:37:35;;;;;;;;;13.00;12.00;;;;;17.88;57.65;102016.06;5050717;28;45441;-57
2021/10/27 12:40:20;;;;;;;;;16.75;14.00;;;;;17.89;57.57;102008.13;5061800;28;47170;-57
2021/10/27 12:42:47;;;;;;;;;9.75;9.75;;;;;17.92;57.66;102002.72;5061857;28;45186;-57
2021/10/27 12:45:13;;;;;;;;;11.50;8.75;;;;;17.91;57.43;102001.00;5061229;28;45370;-57
2021/10/27 12:47:41;;;;;;;;;21.00;13.25;;;;;17.85;57.75;101993.38;5061897;28;45529;-57
2021/10/27 12:50:20;;;;;;;;;10.50;10.50;;;;;17.92;57.79;101989.56;5061797;28;46051;-58
2021/10/27 12:52:54;;;;;;;;;12.75;12.75;;;;;17.96;58.01;101997.34;5051150;28;45371;-62
2021/10/27 12:55:31;;;;;;;;;13.00;10.25;;;;;18.04;58.36;101988.25;5052740;28;45418;-59
2021/10/27 12:58:04;;;;;;;;;6.50;6.25;;;;;18.05;57.77;101989.13;5052178;28;45485;-58
2021/10/27 13:00:38;;;;;;;;;9.50;8.50;;;;;17.99;58.20;101977.03;5054103;28;46991;-58
2021/10/27 13:05:50;;;;;;;;;12.75;12.00;;;;;18.03;58.44;101978.66;5061809;28;45369;-58
2021/10/27 13:29:33;;;;;;;;;15.75;10.75;;;;;18.14;59.16;101938.75;5051202;28;45383;-60
2021/10/27 13:31:49;;;;;;;;;13.25;11.00;;;;;18.10;59.44;101942.44;5052419;28;45874;-59
2021/10/27 13:34:15;;;;;;;;;11.50;10.25;;;;;18.06;59.62;101933.81;5049164;28;45403;-56
2021/10/27 13:36:40;;;;;;;;;14.00;10.50;;;;;18.08;59.89;101942.50;5049555;28;45445;-57
2021/10/27 13:39:06;;;;;;;;;10.75;10.75;;;;;18.12;60.20;101936.19;5049727;28;45588;-57
2021/10/27 13:41:32;;;;;;;;;16.75;11.75;;;;;18.04;59.77;101934.78;5056226;28;46772;-56
2021/10/27 13:44:04;;;;;;;;;14.75;11.50;;;;;18.04;60.45;101937.44;5051489;28;45423;-56
2021/10/27 13:46:38;;;;;;;;;21.25;13.00;;;;;18.14;60.39;101936.13;5047725;28;45458;-56
2021/10/27 14:08:18;;;;;;;;;17.50;15.50;;;;;18.61;59.67;101904.34;5060502;28;45522;-66
2021/10/27 14:10:53;;;;;;;;;20.75;16.00;;;;;18.75;59.74;101904.66;5057452;28;45216;-58
2021/10/27 14:13:25;;;;;;;;;15.50;12.25;;;;;18.79;59.75;101911.50;5059497;28;45583;-58
2021/10/27 15:23:18;;;;;;;;;13.25;10.25;;;;;23.31;52.42;101849.63;5046888;28;45425;-58
2021/10/27 15:27:40;;;;;;;;;19.00;13.25;;;;;24.31;50.60;101854.66;5046101;28;45221;-58
2021/10/27 15:42:37;;;;;;;;;9.75;8.00;;;;;26.65;42.48;101842.09;5058314;28;45239;-57
2021/10/27 15:45:15;;;;;;;;;19.25;15.75;;;;;26.60;42.92;101843.38;5059317;28;45457;-57
2021/10/27 15:53:25;;;;;;;;;10.25;8.50;;;;;26.41;41.76;101835.09;5056092;28;45255;-57
2021/10/27 15:55:50;;;;;;;;;17.25;11.50;;;;;26.48;41.59;101839.88;5058846;28;45869;-58
2021/10/27 15:58:16;;;;;;;;;8.75;6.00;;;;;26.24;41.16;101842.56;5057067;28;45367;-57
2021/10/27 16:00:41;;;;;;;;;12.50;9.00;;;;;25.81;41.60;101834.25;5053283;28;46059;-58
2021/10/27 16:03:08;;;;;;;;;7.25;7.25;;;;;25.67;41.81;101837.97;5057077;28;45410;-58
2021/10/27 16:05:42;;;;;;;;;9.00;6.25;;;;;25.38;41.63;101833.88;5059009;28;45468;-58
2021/10/27 16:08:11;;;;;;;;;24.00;13.50;;;;;25.45;42.46;101835.16;5058825;28;45354;-57
2021/10/27 16:10:37;;;;;;;;;11.00;10.00;;;;;25.86;41.96;101833.94;5051241;28;46107;-58
2021/10/27 16:13:03;;;;;;;;;50.00;37.75;;;;;26.03;41.46;101828.22;5057510;28;45327;-58
2021/10/27 16:15:39;;;;;;;;;13.50;9.00;;;;;26.04;41.29;101827.25;5058594;28;45343;-58